Terminal Aerodrome Forecast
Issued by NWS Brownsville, TX

Current Version | Previous Version | Text Only | Print | Product List | Glossary On
Versions: 1 2 3 4 5 6 7 8 9 10 11 12 13 14 15
000
FTUS44 KBRO 021720
TAFMFE
TAF
KMFE 021720Z 0218/0318 00000KT P6SM SCT045
      TEMPO 0220/0223 11015G25KT 4SM -TSRA BKN035CB
     FM022300 11008KT P6SM VCSH SCT035 BKN100
     FM030100 12005KT P6SM SCT100 BKN150
     FM031700 17012G18KT P6SM SCT030 SCT150=

USA.gov is the U.S. government's official web portal to all federal, state and local government web resources and services.